Huvudsida
METAR-TAF:

METAR-TAF

Flygplatser :

Taba International Airport

Taba, Egypten

latitud: 29-35-57N, longitud: 034-46-36E, höjd: 749 m

METAR: saknas

Tid: 15:19 (13:19 UTC)

Väderprognos

Denna rapport gjordes för 2 timmar och 19 minuter sedan, klockan 11:00 UTC
Prognos gäller från 20 kl. 12 UTC till 21 kl. 18 UTC
Vind 14 kt från nord/nordväst
Sikt 10 km eller mer
Inga moln under 1 500 m eller inga cumulonimbus
Blir
från 20 kl. 22 UTC till 20 kl. 24 UTC
Vind 3 kt varierande vindriktning
Blir
från 21 kl. 06 UTC till 21 kl. 08 UTC
Vind 13 kt från nord/nordväst

TAF: HETB 201100Z 2012/2118 33014KT CAVOK BECMG 2022/2024 VRB03KT BECMG 2106/2108 33013KT

Aktuella väderrapporter och prognoser från 4000 flygplatser (METAR- och TAF-rapporter).

De tillgängliga stationerna syns som gula och röda prickar på kartan.

För musen över prickarna för att se namnen på stationerna.

Klicka sedan för att få väderrapporter och prognoser.

För att ändra kartan: Klicka på de gröna knapparna med ett svart kors på för att zooma in; den gröna knappen med ett streck på för att zooma ut; eller på de gröna pilarna för angränsande kartor.


METAR-TAF: